createdAt,value
2017-10-10T00:01:34.263Z,90.50
2017-10-10T00:04:03.360Z,90.80
2017-10-10T00:06:31.631Z,90.40
2017-10-10T00:08:59.971Z,90.50
2017-10-10T00:11:28.250Z,90.50
2017-10-10T00:13:56.531Z,90.40
2017-10-10T00:16:25.629Z,90.60
2017-10-10T00:18:53.902Z,90.40
2017-10-10T00:21:22.192Z,90.60
2017-10-10T00:23:50.460Z,90.50
2017-10-10T00:26:18.771Z,90.50
2017-10-10T00:28:47.799Z,90.50
2017-10-10T00:31:16.071Z,90.50
2017-10-10T00:33:44.363Z,90.70
2017-10-10T00:36:13.416Z,90.70
2017-10-10T00:38:41.719Z,90.70
2017-10-10T00:41:10.031Z,90.80
2017-10-10T00:43:38.303Z,90.50
2017-10-10T00:46:06.595Z,90.70
2017-10-10T00:48:35.672Z,90.90
2017-10-10T00:51:04.796Z,90.80
2017-10-10T00:53:33.199Z,90.70
2017-10-10T00:56:01.478Z,90.60
2017-10-10T00:58:30.539Z,90.60
2017-10-10T01:00:58.815Z,90.50
2017-10-10T01:03:28.004Z,90.00
2017-10-10T01:05:57.047Z,90.00
2017-10-10T01:08:25.327Z,90.00
2017-10-10T01:10:53.612Z,90.00
2017-10-10T01:13:21.886Z,90.70
2017-10-10T01:15:50.184Z,90.30
2017-10-10T01:18:18.463Z,90.60
2017-10-10T01:20:46.751Z,90.50
2017-10-10T01:23:15.785Z,90.50
2017-10-10T01:25:44.153Z,90.50
2017-10-10T01:28:12.423Z,90.80
2017-10-10T01:30:40.744Z,90.80
2017-10-10T01:33:09.020Z,90.90
2017-10-10T01:35:37.295Z,91.00
2017-10-10T01:38:06.358Z,90.50
2017-10-10T01:40:34.647Z,90.50
2017-10-10T01:43:02.999Z,90.50
2017-10-10T01:45:31.302Z,90.60
2017-10-10T01:48:00.338Z,90.80
2017-10-10T01:50:28.639Z,90.70
2017-10-10T01:52:57.678Z,91.00
2017-10-10T01:55:25.995Z,91.00
2017-10-10T01:57:55.075Z,91.30
2017-10-10T02:00:23.352Z,91.30
2017-10-10T02:02:51.663Z,91.20
2017-10-10T02:05:19.936Z,91.30
2017-10-10T02:07:48.995Z,91.30
2017-10-10T02:10:17.267Z,91.30
2017-10-10T02:12:45.560Z,91.70
2017-10-10T02:15:13.831Z,91.50
2017-10-10T02:17:42.130Z,91.50
2017-10-10T02:20:10.399Z,91.30
2017-10-10T02:22:38.691Z,91.20
2017-10-10T02:25:07.735Z,91.20
2017-10-10T02:27:36.059Z,91.10
2017-10-10T02:30:04.332Z,91.30
2017-10-10T02:32:32.603Z,91.30
2017-10-10T02:35:00.891Z,91.20
2017-10-10T02:37:29.284Z,91.10
2017-10-10T02:39:58.362Z,90.60
2017-10-10T02:42:27.415Z,90.40
2017-10-10T02:44:57.199Z,90.20
2017-10-10T02:47:25.490Z,90.20
2017-10-10T02:49:54.614Z,90.90
2017-10-10T02:52:22.937Z,90.60
2017-10-10T02:54:51.204Z,90.60
2017-10-10T02:57:20.285Z,90.60
2017-10-10T02:59:49.347Z,90.60
2017-10-10T03:02:17.620Z,90.60
2017-10-10T03:04:46.699Z,90.30
2017-10-10T03:07:15.747Z,90.60
2017-10-10T03:09:44.018Z,90.60
2017-10-10T03:12:12.317Z,90.60
2017-10-10T03:14:40.592Z,90.60
2017-10-10T03:17:08.940Z,90.60
2017-10-10T03:19:37.975Z,90.60
2017-10-10T03:22:06.256Z,90.60
2017-10-10T03:24:34.548Z,90.00
2017-10-10T03:27:02.826Z,90.00
2017-10-10T03:29:32.051Z,90.10
2017-10-10T03:32:01.208Z,90.10
2017-10-10T03:34:29.724Z,89.60
2017-10-10T03:36:58.758Z,90.30
2017-10-10T03:39:27.058Z,90.00
2017-10-10T03:41:56.110Z,90.50
2017-10-10T03:44:24.387Z,90.50
2017-10-10T03:46:52.706Z,90.60
2017-10-10T03:49:20.988Z,90.60
2017-10-10T03:51:49.262Z,90.60
2017-10-10T03:54:17.563Z,90.60
2017-10-10T03:56:46.606Z,90.60
2017-10-10T03:59:14.894Z,90.60
2017-10-10T04:01:43.924Z,90.50
2017-10-10T04:04:12.319Z,90.50
2017-10-10T04:06:40.651Z,90.20
2017-10-10T04:09:08.923Z,90.00
2017-10-10T04:11:37.212Z,90.10
2017-10-10T04:14:06.303Z,89.70
2017-10-10T04:16:35.360Z,89.90
2017-10-10T04:19:03.639Z,89.80
2017-10-10T04:21:32.727Z,89.60
2017-10-10T04:24:01.766Z,90.00
2017-10-10T04:26:30.043Z,90.00
2017-10-10T04:28:58.343Z,90.30
2017-10-10T04:31:26.633Z,89.20
2017-10-10T04:33:54.927Z,89.50
2017-10-10T04:36:23.203Z,89.30
2017-10-10T04:38:52.239Z,90.60
2017-10-10T04:41:20.528Z,90.60
2017-10-10T04:43:48.804Z,90.60
2017-10-10T04:46:17.106Z,90.60
2017-10-10T04:48:45.384Z,90.60
2017-10-10T04:51:13.660Z,90.60
2017-10-10T04:53:41.948Z,90.20
2017-10-10T04:56:10.979Z,88.70
2017-10-10T04:58:39.271Z,88.70
2017-10-10T05:01:07.555Z,88.50
2017-10-10T05:03:35.861Z,88.80
2017-10-10T05:06:04.134Z,89.00
2017-10-10T05:08:32.419Z,88.40
2017-10-10T05:11:00.717Z,88.40
2017-10-10T05:13:29.751Z,89.30
2017-10-10T05:15:58.041Z,89.30
2017-10-10T05:18:27.079Z,89.30
2017-10-10T05:20:55.387Z,89.30
2017-10-10T05:23:24.415Z,88.70
2017-10-10T05:25:52.678Z,88.70
2017-10-10T05:28:20.984Z,88.10
2017-10-10T05:30:50.063Z,88.60
2017-10-10T05:33:19.107Z,89.30
2017-10-10T05:35:47.375Z,89.20
2017-10-10T05:38:15.655Z,89.70
2017-10-10T05:40:44.736Z,90.20
2017-10-10T05:43:13.008Z,90.00
2017-10-10T05:45:42.048Z,89.70
2017-10-10T05:48:10.348Z,89.60
2017-10-10T05:50:39.387Z,88.50
2017-10-10T05:53:07.686Z,88.40
2017-10-10T05:55:36.744Z,88.70
2017-10-10T05:58:05.015Z,88.70
2017-10-10T06:00:33.307Z,90.10
2017-10-10T06:03:01.583Z,90.60
2017-10-10T06:05:30.017Z,90.60
2017-10-10T06:07:59.067Z,90.10
2017-10-10T06:10:27.335Z,90.10
2017-10-10T06:12:55.623Z,88.40
2017-10-10T06:15:24.655Z,87.10
2017-10-10T06:17:53.151Z,87.00
2017-10-10T06:20:21.559Z,86.70
2017-10-10T06:22:49.837Z,87.00
2017-10-10T06:25:18.139Z,86.70
2017-10-10T06:27:46.451Z,88.20
2017-10-10T06:30:14.723Z,87.70
2017-10-10T06:32:43.003Z,87.80
2017-10-10T06:35:11.287Z,87.40
2017-10-10T06:37:40.319Z,88.00
2017-10-10T06:40:08.643Z,87.80
2017-10-10T06:42:37.686Z,88.90
2017-10-10T06:45:05.960Z,88.90
2017-10-10T06:47:34.250Z,89.60
2017-10-10T06:50:02.550Z,90.00
2017-10-10T06:52:30.956Z,87.60
2017-10-10T06:54:59.235Z,85.60
2017-10-10T06:57:28.283Z,88.00
2017-10-10T06:59:56.572Z,88.00
2017-10-10T07:02:25.626Z,87.40
2017-10-10T07:04:55.422Z,87.30
2017-10-10T07:07:23.712Z,87.40
2017-10-10T07:09:52.750Z,85.40
2017-10-10T07:12:21.028Z,85.30
2017-10-10T07:14:49.304Z,84.30
2017-10-10T07:17:18.339Z,84.90
2017-10-10T07:19:46.622Z,84.90
2017-10-10T07:22:16.403Z,82.40
2017-10-10T07:24:44.682Z,82.30
2017-10-10T07:27:12.986Z,82.70
2017-10-10T07:29:41.263Z,81.70
2017-10-10T07:32:09.547Z,84.00
2017-10-10T07:34:37.823Z,82.20
2017-10-10T07:37:06.408Z,82.40
2017-10-10T07:39:34.691Z,81.40
2017-10-10T07:42:03.712Z,79.60
2017-10-10T07:44:32.003Z,79.50
2017-10-10T07:47:00.295Z,80.70
2017-10-10T07:49:28.596Z,78.10
2017-10-10T07:51:56.856Z,80.80
2017-10-10T07:54:25.123Z,78.60
2017-10-10T07:56:53.420Z,77.70
2017-10-10T07:59:22.455Z,76.80
2017-10-10T08:01:50.767Z,76.70
2017-10-10T08:04:19.799Z,76.40
2017-10-10T08:06:48.060Z,76.30
2017-10-10T08:09:16.343Z,76.20
2017-10-10T08:11:44.621Z,74.80
2017-10-10T08:14:12.902Z,75.20
2017-10-10T08:16:41.183Z,76.20
2017-10-10T08:19:09.451Z,75.30
2017-10-10T08:21:37.740Z,74.70
2017-10-10T08:24:06.020Z,76.40
2017-10-10T08:26:34.311Z,76.60
2017-10-10T08:29:02.579Z,76.70
2017-10-10T08:31:30.890Z,77.10
2017-10-10T08:33:59.172Z,77.40
2017-10-10T08:36:28.206Z,77.00
2017-10-10T08:38:56.523Z,77.00
2017-10-10T08:41:25.551Z,75.30
2017-10-10T08:43:53.838Z,75.20
2017-10-10T08:46:22.094Z,76.80
2017-10-10T08:48:50.419Z,75.00
2017-10-10T08:51:18.687Z,74.90
2017-10-10T08:53:46.960Z,74.30
2017-10-10T08:56:15.238Z,75.00
2017-10-10T08:58:43.508Z,73.60
2017-10-10T09:01:11.818Z,74.80
2017-10-10T09:03:40.075Z,74.10
2017-10-10T09:06:08.335Z,73.10
2017-10-10T09:08:36.628Z,72.40
2017-10-10T09:11:04.894Z,70.90
2017-10-10T09:13:33.394Z,72.10
2017-10-10T09:16:01.651Z,72.10
2017-10-10T09:18:29.921Z,70.80
2017-10-10T09:20:58.980Z,71.20
2017-10-10T09:23:27.267Z,71.20
2017-10-10T09:25:56.339Z,70.70
2017-10-10T09:28:25.375Z,70.60
2017-10-10T09:30:53.644Z,70.50
2017-10-10T09:33:21.927Z,69.90
2017-10-10T09:35:50.191Z,69.10
2017-10-10T09:38:18.601Z,70.00
2017-10-10T09:40:46.861Z,69.80
2017-10-10T09:43:15.128Z,70.00
2017-10-10T09:45:43.411Z,70.20
2017-10-10T09:48:11.783Z,68.90
2017-10-10T09:50:40.149Z,71.40
2017-10-10T09:53:08.411Z,68.50
2017-10-10T09:55:36.678Z,68.20
2017-10-10T09:58:04.963Z,68.70
2017-10-10T10:00:33.996Z,67.90
2017-10-10T10:03:02.300Z,67.80
2017-10-10T10:05:30.632Z,68.00
2017-10-10T10:07:58.882Z,68.30
2017-10-10T10:10:27.168Z,68.40
2017-10-10T10:12:55.452Z,69.20
2017-10-10T10:15:24.524Z,70.60
2017-10-10T10:17:53.554Z,67.70
2017-10-10T10:20:21.831Z,67.60
2017-10-10T10:22:50.120Z,69.20
2017-10-10T10:25:18.379Z,68.00
2017-10-10T10:27:46.663Z,68.30
2017-10-10T10:30:14.940Z,67.90
2017-10-10T10:32:43.223Z,69.10
2017-10-10T10:35:11.486Z,68.90
2017-10-10T10:37:39.887Z,69.40
2017-10-10T10:40:08.147Z,72.00
2017-10-10T10:42:37.178Z,73.40
2017-10-10T10:45:05.463Z,73.00
2017-10-10T10:47:33.736Z,76.00
2017-10-10T10:50:02.062Z,77.00
2017-10-10T10:52:30.388Z,78.90
2017-10-10T10:54:59.427Z,82.00
2017-10-10T10:57:27.711Z,81.90
2017-10-10T10:59:55.975Z,81.10
2017-10-10T11:02:24.538Z,82.30
2017-10-10T11:04:54.315Z,81.30
2017-10-10T11:07:22.579Z,81.20
2017-10-10T11:09:50.859Z,80.70
2017-10-10T11:12:19.127Z,83.10
2017-10-10T11:14:47.435Z,83.70
2017-10-10T11:17:15.704Z,84.10
2017-10-10T11:19:43.966Z,84.10
2017-10-10T11:22:12.263Z,86.00
2017-10-10T11:24:40.532Z,85.30
2017-10-10T11:27:08.844Z,84.30
2017-10-10T11:29:37.123Z,87.10
2017-10-10T11:32:05.392Z,87.00
2017-10-10T11:34:33.684Z,85.90
2017-10-10T11:37:02.724Z,85.30
2017-10-10T11:39:31.045Z,85.20
2017-10-10T11:41:59.315Z,86.30
2017-10-10T11:44:27.599Z,85.90
2017-10-10T11:46:55.879Z,86.70
2017-10-10T11:49:24.145Z,86.20
2017-10-10T11:51:52.455Z,88.00
2017-10-10T11:54:20.733Z,87.10
2017-10-10T11:56:48.991Z,87.40
2017-10-10T11:59:17.274Z,87.70
2017-10-10T12:01:45.554Z,88.00
2017-10-10T12:04:13.840Z,87.50
2017-10-10T12:06:42.876Z,88.50
2017-10-10T12:09:11.160Z,88.40
2017-10-10T12:11:39.436Z,88.10
2017-10-10T12:14:08.523Z,86.20
2017-10-10T12:16:37.662Z,88.20
2017-10-10T12:19:05.922Z,88.00
2017-10-10T12:21:34.211Z,86.20
2017-10-10T12:24:02.479Z,86.20
2017-10-10T12:26:31.541Z,88.00
2017-10-10T12:28:59.805Z,88.00
2017-10-10T12:31:28.104Z,85.90
2017-10-10T12:33:57.131Z,86.90
2017-10-10T12:36:25.623Z,86.80
2017-10-10T12:38:53.892Z,86.40
2017-10-10T12:41:22.927Z,86.40
2017-10-10T12:43:51.210Z,86.30
2017-10-10T12:46:19.488Z,85.80
2017-10-10T12:48:47.787Z,85.00
2017-10-10T12:51:16.060Z,85.40
2017-10-10T12:53:44.331Z,86.50
2017-10-10T12:56:12.621Z,85.90
2017-10-10T12:58:40.892Z,86.90
2017-10-10T13:01:09.199Z,86.30
2017-10-10T13:03:37.476Z,88.70
2017-10-10T13:06:05.743Z,87.10
2017-10-10T13:08:34.028Z,88.60
2017-10-10T13:11:03.824Z,88.40
2017-10-10T13:13:32.128Z,88.40
2017-10-10T13:16:00.398Z,89.40
2017-10-10T13:18:28.664Z,86.40
2017-10-10T13:20:56.955Z,85.50
2017-10-10T13:23:25.228Z,85.80
2017-10-10T13:25:53.527Z,86.70
2017-10-10T13:28:22.562Z,87.10
2017-10-10T13:30:50.839Z,86.90
2017-10-10T13:33:19.123Z,88.20
2017-10-10T13:35:48.187Z,90.30
2017-10-10T13:38:17.248Z,88.80
2017-10-10T13:40:45.510Z,88.70
2017-10-10T13:43:13.783Z,88.50
2017-10-10T13:45:42.068Z,90.10
2017-10-10T13:48:11.103Z,90.00
2017-10-10T13:50:39.399Z,90.00
2017-10-10T13:53:08.440Z,89.10
2017-10-10T13:55:36.709Z,89.10
2017-10-10T13:58:04.986Z,89.30
2017-10-10T14:00:33.256Z,90.00
2017-10-10T14:03:02.339Z,88.80
2017-10-10T14:05:30.613Z,88.80
2017-10-10T14:07:59.644Z,90.30
2017-10-10T14:10:28.004Z,90.30
2017-10-10T14:12:56.327Z,90.40
2017-10-10T14:15:24.604Z,90.00
2017-10-10T14:17:52.868Z,90.20
2017-10-10T14:20:21.215Z,90.20
2017-10-10T14:22:49.511Z,90.20
2017-10-10T14:25:17.784Z,90.00
2017-10-10T14:27:46.052Z,90.20
2017-10-10T14:30:14.333Z,89.80
2017-10-10T14:32:43.382Z,90.10
2017-10-10T14:35:11.868Z,90.00
2017-10-10T14:37:40.143Z,89.00
2017-10-10T14:40:09.174Z,89.20
2017-10-10T14:42:37.463Z,89.10
2017-10-10T14:45:06.503Z,88.00
2017-10-10T14:47:35.021Z,88.00
2017-10-10T14:50:03.284Z,88.30
2017-10-10T14:52:32.310Z,88.70
2017-10-10T14:55:00.600Z,88.70
2017-10-10T14:57:28.899Z,89.00
2017-10-10T14:59:57.936Z,88.00
2017-10-10T15:02:26.223Z,87.80
2017-10-10T15:04:54.512Z,86.80
2017-10-10T15:07:22.782Z,87.30
2017-10-10T15:09:51.063Z,87.60
2017-10-10T15:12:19.330Z,87.90
2017-10-10T15:14:47.615Z,89.30
2017-10-10T15:17:15.886Z,88.70
2017-10-10T15:19:44.143Z,87.90
2017-10-10T15:22:12.431Z,87.90
2017-10-10T15:24:40.701Z,87.60
2017-10-10T15:27:09.128Z,87.90
2017-10-10T15:29:38.171Z,86.50
2017-10-10T15:32:06.435Z,86.50
2017-10-10T15:34:34.715Z,86.30
2017-10-10T15:37:02.983Z,86.90
2017-10-10T15:39:31.279Z,88.00
2017-10-10T15:42:00.311Z,89.10
2017-10-10T15:44:28.732Z,89.20
2017-10-10T15:46:56.994Z,89.30
2017-10-10T15:49:25.266Z,90.10
2017-10-10T15:51:53.559Z,90.30
2017-10-10T15:54:21.823Z,90.80
2017-10-10T15:56:50.118Z,90.60
2017-10-10T15:59:19.159Z,90.70
2017-10-10T16:01:47.424Z,90.70
2017-10-10T16:04:15.748Z,90.90
2017-10-10T16:06:44.015Z,90.30
2017-10-10T16:09:12.320Z,90.50
2017-10-10T16:11:40.595Z,90.40
2017-10-10T16:14:09.623Z,90.80
2017-10-10T16:16:37.932Z,90.70
2017-10-10T16:19:06.195Z,90.70
2017-10-10T16:21:34.499Z,90.20
2017-10-10T16:24:02.768Z,89.50
2017-10-10T16:26:31.035Z,90.00
2017-10-10T16:28:59.315Z,90.30
2017-10-10T16:31:27.587Z,90.10
2017-10-10T16:33:55.910Z,90.20
2017-10-10T16:36:24.163Z,89.10
2017-10-10T16:38:52.447Z,88.30
2017-10-10T16:41:20.743Z,89.00
2017-10-10T16:43:49.007Z,89.30
2017-10-10T16:46:17.302Z,88.70
2017-10-10T16:48:45.795Z,88.50
2017-10-10T16:51:14.070Z,88.60
2017-10-10T16:53:42.360Z,89.20
2017-10-10T16:56:11.215Z,89.70
2017-10-10T16:58:41.056Z,90.40
2017-10-10T17:01:09.395Z,90.40
2017-10-10T17:03:37.660Z,90.50
2017-10-10T17:06:06.711Z,91.00
2017-10-10T17:08:35.749Z,91.30
2017-10-10T17:11:04.040Z,91.30
2017-10-10T17:13:32.313Z,91.30
2017-10-10T17:16:00.617Z,91.30
2017-10-10T17:18:29.651Z,90.60
2017-10-10T17:20:57.975Z,90.60
2017-10-10T17:23:27.868Z,90.70
2017-10-10T17:25:56.936Z,89.70
2017-10-10T17:28:25.979Z,89.30
2017-10-10T17:30:54.256Z,89.30
2017-10-10T17:33:22.735Z,88.40
2017-10-10T17:35:51.797Z,88.60
2017-10-10T17:38:21.611Z,88.60
2017-10-10T17:40:49.907Z,89.00
2017-10-10T17:43:18.175Z,88.80
2017-10-10T17:45:46.463Z,88.00
2017-10-10T17:48:14.735Z,88.30
2017-10-10T17:50:43.025Z,88.70
2017-10-10T17:53:12.059Z,88.70
2017-10-10T17:55:40.352Z,88.60
2017-10-10T17:58:09.409Z,87.50
2017-10-10T18:00:37.684Z,87.30
2017-10-10T18:03:05.995Z,87.50
2017-10-10T18:05:34.266Z,88.20
2017-10-10T18:08:02.547Z,88.30
2017-10-10T18:10:30.819Z,89.80
2017-10-10T18:12:59.088Z,89.50
2017-10-10T18:15:27.427Z,90.00
2017-10-10T18:17:55.695Z,88.90
2017-10-10T18:20:23.963Z,88.60
2017-10-10T18:22:52.252Z,88.40
2017-10-10T18:25:21.279Z,89.60
2017-10-10T18:27:49.563Z,89.40
2017-10-10T18:30:17.832Z,89.30
2017-10-10T18:32:46.135Z,88.90
2017-10-10T18:35:14.416Z,87.20
2017-10-10T18:37:42.692Z,87.40
2017-10-10T18:40:10.975Z,89.10
2017-10-10T18:42:39.247Z,88.80
2017-10-10T18:45:07.527Z,88.10
2017-10-10T18:47:36.559Z,87.50
2017-10-10T18:50:04.860Z,87.50
2017-10-10T18:52:33.937Z,87.80
2017-10-10T18:55:02.196Z,87.80
2017-10-10T18:57:30.479Z,87.40
2017-10-10T18:59:58.751Z,87.10
2017-10-10T19:02:27.056Z,86.40
2017-10-10T19:04:55.345Z,86.50
2017-10-10T19:07:23.592Z,87.10
2017-10-10T19:09:51.883Z,88.00
2017-10-10T19:12:20.908Z,87.40
2017-10-10T19:14:49.238Z,87.40
2017-10-10T19:17:17.511Z,87.80
2017-10-10T19:19:45.787Z,86.50
2017-10-10T19:22:14.071Z,86.10
2017-10-10T19:24:42.335Z,86.70
2017-10-10T19:27:10.643Z,87.60
2017-10-10T19:29:38.926Z,86.80
2017-10-10T19:32:07.186Z,86.80
2017-10-10T19:34:35.475Z,86.80
2017-10-10T19:37:03.753Z,86.50
2017-10-10T19:39:32.087Z,87.50
2017-10-10T19:42:00.354Z,87.20
2017-10-10T19:44:28.641Z,86.50
2017-10-10T19:46:56.919Z,86.80
2017-10-10T19:49:25.950Z,87.80
2017-10-10T19:51:54.455Z,87.60
2017-10-10T19:54:23.496Z,87.50
2017-10-10T19:56:51.783Z,87.50
2017-10-10T19:59:20.072Z,87.60
2017-10-10T20:01:48.620Z,87.30
2017-10-10T20:04:17.895Z,88.40
2017-10-10T20:06:46.167Z,88.30
2017-10-10T20:09:15.207Z,86.60
2017-10-10T20:11:43.495Z,86.50
2017-10-10T20:14:11.781Z,87.10
2017-10-10T20:16:40.199Z,87.20
2017-10-10T20:19:08.471Z,86.70
2017-10-10T20:21:36.743Z,88.20
2017-10-10T20:24:05.027Z,86.20
2017-10-10T20:26:33.304Z,86.80
2017-10-10T20:29:01.651Z,87.30
2017-10-10T20:31:30.744Z,86.90
2017-10-10T20:33:59.012Z,86.90
2017-10-10T20:36:27.300Z,86.40
2017-10-10T20:38:55.583Z,87.00
2017-10-10T20:41:24.060Z,87.20
2017-10-10T20:43:52.351Z,86.70
2017-10-10T20:46:20.652Z,87.00
2017-10-10T20:48:48.941Z,85.70
2017-10-10T20:51:17.215Z,85.80
2017-10-10T20:53:46.266Z,86.10
2017-10-10T20:56:14.539Z,85.30
2017-10-10T20:58:43.010Z,85.60
2017-10-10T21:01:11.291Z,86.20
2017-10-10T21:03:40.323Z,86.70
2017-10-10T21:06:08.603Z,86.50
2017-10-10T21:08:37.767Z,86.90
2017-10-10T21:11:06.051Z,86.90
2017-10-10T21:13:34.321Z,86.50
2017-10-10T21:16:03.355Z,87.20
2017-10-10T21:18:31.651Z,87.20
2017-10-10T21:20:59.926Z,87.90
2017-10-10T21:23:29.019Z,87.90
2017-10-10T21:25:58.060Z,87.40
2017-10-10T21:28:26.330Z,87.40
2017-10-10T21:30:54.611Z,86.50
2017-10-10T21:33:22.920Z,85.60
2017-10-10T21:35:51.238Z,85.80
2017-10-10T21:38:20.272Z,84.60
2017-10-10T21:40:48.536Z,84.50
2017-10-10T21:43:16.820Z,85.60
2017-10-10T21:45:45.100Z,85.80
2017-10-10T21:48:14.383Z,84.90
2017-10-10T21:50:43.427Z,84.60
2017-10-10T21:53:11.699Z,84.60
2017-10-10T21:55:40.742Z,85.20
2017-10-10T21:58:09.007Z,85.20
2017-10-10T22:00:37.310Z,85.80
2017-10-10T22:03:05.580Z,86.30
2017-10-10T22:05:34.627Z,85.40
2017-10-10T22:08:02.923Z,85.30
2017-10-10T22:10:31.954Z,84.80
2017-10-10T22:13:00.239Z,84.80
2017-10-10T22:15:28.528Z,85.70
2017-10-10T22:17:57.590Z,85.30
2017-10-10T22:20:25.854Z,85.20
2017-10-10T22:22:54.149Z,85.30
2017-10-10T22:25:22.439Z,84.60
2017-10-10T22:27:50.716Z,85.50
2017-10-10T22:30:19.018Z,85.50
2017-10-10T22:32:48.055Z,86.00
2017-10-10T22:35:16.345Z,85.90
2017-10-10T22:37:44.627Z,84.80
2017-10-10T22:40:12.896Z,84.70
2017-10-10T22:42:41.203Z,84.60
2017-10-10T22:45:09.468Z,84.60
2017-10-10T22:47:37.740Z,85.10
2017-10-10T22:50:06.024Z,85.50
2017-10-10T22:52:35.067Z,85.70
2017-10-10T22:55:03.364Z,85.50
2017-10-10T22:57:32.399Z,84.60
2017-10-10T23:00:00.687Z,84.60
2017-10-10T23:02:28.986Z,84.70
2017-10-10T23:04:57.267Z,84.50
2017-10-10T23:07:25.535Z,84.60
2017-10-10T23:09:53.839Z,84.60
2017-10-10T23:12:22.885Z,84.60
2017-10-10T23:14:51.159Z,84.60
2017-10-10T23:17:19.447Z,84.50
2017-10-10T23:19:48.480Z,84.50
2017-10-10T23:22:16.765Z,84.50
2017-10-10T23:24:45.027Z,84.50
2017-10-10T23:29:56.995Z,84.50
2017-10-10T23:32:25.299Z,84.50
2017-10-10T23:34:54.326Z,84.50
2017-10-10T23:37:22.607Z,85.20
2017-10-10T23:39:50.887Z,84.60
2017-10-10T23:42:19.156Z,84.60
2017-10-10T23:44:48.237Z,84.60
2017-10-10T23:47:17.271Z,84.50
2017-10-10T23:49:45.547Z,84.50
2017-10-10T23:52:13.830Z,84.50
2017-10-10T23:54:42.098Z,84.50
2017-10-10T23:57:11.270Z,84.50
2017-10-10T23:59:39.540Z,84.50
